sensor_id;sensor_type;location;lat;lon;timestamp;pressure;altitude;pressure_sealevel;temperature;humidity
14120;BME280;7138;49.246;9.100;2023-01-27T00:00:58;99057.31;;;2.29;84.16
14120;BME280;7138;49.246;9.100;2023-01-27T00:03:24;99051.34;;;2.29;83.95
14120;BME280;7138;49.246;9.100;2023-01-27T00:05:51;99053.13;;;2.31;84.05
14120;BME280;7138;49.246;9.100;2023-01-27T00:08:18;99051.56;;;2.35;84.25
14120;BME280;7138;49.246;9.100;2023-01-27T00:10:44;99060.91;;;2.34;84.11
14120;BME280;7138;49.246;9.100;2023-01-27T00:13:12;99051.53;;;2.33;83.10
14120;BME280;7138;49.246;9.100;2023-01-27T00:15:54;99047.19;;;2.31;83.88
14120;BME280;7138;49.246;9.100;2023-01-27T00:18:20;99060.78;;;2.31;83.75
14120;BME280;7138;49.246;9.100;2023-01-27T00:20:47;99058.19;;;2.30;83.78
14120;BME280;7138;49.246;9.100;2023-01-27T00:23:33;99051.47;;;2.32;85.03
14120;BME280;7138;49.246;9.100;2023-01-27T00:26:18;99054.00;;;2.32;84.61
14120;BME280;7138;49.246;9.100;2023-01-27T00:28:46;99050.56;;;2.30;84.16
14120;BME280;7138;49.246;9.100;2023-01-27T00:31:15;99054.66;;;2.26;84.41
14120;BME280;7138;49.246;9.100;2023-01-27T00:34:00;99051.34;;;2.29;85.50
14120;BME280;7138;49.246;9.100;2023-01-27T00:36:34;99051.13;;;2.22;85.18
14120;BME280;7138;49.246;9.100;2023-01-27T00:39:03;99051.00;;;2.19;84.71
14120;BME280;7138;49.246;9.100;2023-01-27T00:41:29;99054.38;;;2.18;84.87
14120;BME280;7138;49.246;9.100;2023-01-27T00:43:55;99048.66;;;2.24;85.89
14120;BME280;7138;49.246;9.100;2023-01-27T00:46:23;99054.63;;;2.25;85.92
14120;BME280;7138;49.246;9.100;2023-01-27T00:48:50;99051.31;;;2.27;85.00
14120;BME280;7138;49.246;9.100;2023-01-27T00:51:17;99052.97;;;2.27;85.69
14120;BME280;7138;49.246;9.100;2023-01-27T00:53:44;99050.59;;;2.31;86.16
14120;BME280;7138;49.246;9.100;2023-01-27T00:56:12;99049.84;;;2.34;85.58
14120;BME280;7138;49.246;9.100;2023-01-27T00:58:38;99050.66;;;2.33;85.00
14120;BME280;7138;49.246;9.100;2023-01-27T01:01:06;99049.75;;;2.31;85.47
14120;BME280;7138;49.246;9.100;2023-01-27T01:03:34;99057.22;;;2.26;86.28
14120;BME280;7138;49.246;9.100;2023-01-27T01:06:04;99047.81;;;2.25;86.45
14120;BME280;7138;49.246;9.100;2023-01-27T01:08:32;99040.91;;;2.22;85.79
14120;BME280;7138;49.246;9.100;2023-01-27T01:10:59;99039.44;;;2.28;86.53
14120;BME280;7138;49.246;9.100;2023-01-27T01:13:27;99041.03;;;2.26;86.86
14120;BME280;7138;49.246;9.100;2023-01-27T01:15:53;99050.56;;;2.30;86.76
14120;BME280;7138;49.246;9.100;2023-01-27T01:18:19;99047.19;;;2.31;85.80
14120;BME280;7138;49.246;9.100;2023-01-27T01:20:46;99054.13;;;2.35;86.28
14120;BME280;7138;49.246;9.100;2023-01-27T01:23:13;99043.78;;;2.30;87.35
14120;BME280;7138;49.246;9.100;2023-01-27T01:25:40;99053.22;;;2.33;86.71
14120;BME280;7138;49.246;9.100;2023-01-27T01:28:08;99051.31;;;2.27;86.85
14120;BME280;7138;49.246;9.100;2023-01-27T01:30:36;99053.22;;;2.33;87.66
14120;BME280;7138;49.246;9.100;2023-01-27T01:33:03;99046.38;;;2.32;87.05
14120;BME280;7138;49.246;9.100;2023-01-27T01:35:29;99035.81;;;2.22;86.71
14120;BME280;7138;49.246;9.100;2023-01-27T01:37:56;99046.59;;;2.38;87.38
14120;BME280;7138;49.246;9.100;2023-01-27T01:40:22;99035.50;;;2.37;87.24
14120;BME280;7138;49.246;9.100;2023-01-27T01:42:55;99040.84;;;2.43;87.44
14120;BME280;7138;49.246;9.100;2023-01-27T01:45:46;99035.03;;;2.47;87.25
14120;BME280;7138;49.246;9.100;2023-01-27T01:48:18;99040.09;;;2.46;87.03
14120;BME280;7138;49.246;9.100;2023-01-27T01:50:50;99042.78;;;2.49;87.35
14120;BME280;7138;49.246;9.100;2023-01-27T01:53:18;99039.44;;;2.51;87.15
14120;BME280;7138;49.246;9.100;2023-01-27T01:55:47;99032.66;;;2.52;87.49
14120;BME280;7138;49.246;9.100;2023-01-27T01:58:14;99035.22;;;2.52;86.41
14120;BME280;7138;49.246;9.100;2023-01-27T02:00:41;99036.03;;;2.51;86.09
14120;BME280;7138;49.246;9.100;2023-01-27T02:03:08;99042.00;;;2.51;86.18
14120;BME280;7138;49.246;9.100;2023-01-27T02:05:39;99035.25;;;2.53;86.82
14120;BME280;7138;49.246;9.100;2023-01-27T02:08:13;99036.94;;;2.53;86.71
14120;BME280;7138;49.246;9.100;2023-01-27T02:10:41;99037.00;;;2.54;86.65
14120;BME280;7138;49.246;9.100;2023-01-27T02:13:07;99039.50;;;2.53;87.04
14120;BME280;7138;49.246;9.100;2023-01-27T02:15:33;99031.63;;;2.47;86.64
14120;BME280;7138;49.246;9.100;2023-01-27T02:18:01;99041.94;;;2.50;87.64
14120;BME280;7138;49.246;9.100;2023-01-27T02:20:36;99037.81;;;2.53;86.86
14120;BME280;7138;49.246;9.100;2023-01-27T02:26:03;99033.69;;;2.57;87.28
14120;BME280;7138;49.246;9.100;2023-01-27T02:28:31;99031.94;;;2.56;87.05
14120;BME280;7138;49.246;9.100;2023-01-27T02:30:57;99026.16;;;2.60;86.61
14120;BME280;7138;49.246;9.100;2023-01-27T02:33:24;99026.25;;;2.63;86.51
14120;BME280;7138;49.246;9.100;2023-01-27T02:35:59;99018.66;;;2.64;87.11
14120;BME280;7138;49.246;9.100;2023-01-27T02:38:32;99024.69;;;2.66;86.49
14120;BME280;7138;49.246;9.100;2023-01-27T02:41:07;99019.59;;;2.66;86.62
14120;BME280;7138;49.246;9.100;2023-01-27T02:43:34;99028.13;;;2.67;86.80
14120;BME280;7138;49.246;9.100;2023-01-27T02:46:00;99018.72;;;2.66;86.46
14120;BME280;7138;49.246;9.100;2023-01-27T02:48:26;99019.47;;;2.63;87.32
14120;BME280;7138;49.246;9.100;2023-01-27T02:50:51;99026.03;;;2.57;87.21
14120;BME280;7138;49.246;9.100;2023-01-27T02:53:17;99019.16;;;2.54;87.94
14120;BME280;7138;49.246;9.100;2023-01-27T02:55:43;99020.81;;;2.54;87.09
14120;BME280;7138;49.246;9.100;2023-01-27T02:58:11;99022.47;;;2.52;87.33
14120;BME280;7138;49.246;9.100;2023-01-27T03:00:40;99026.84;;;2.56;87.12
14120;BME280;7138;49.246;9.100;2023-01-27T03:03:05;99020.94;;;2.57;87.05
14120;BME280;7138;49.246;9.100;2023-01-27T03:05:31;99022.69;;;2.58;87.07
14120;BME280;7138;49.246;9.100;2023-01-27T03:07:57;99018.31;;;2.55;86.74
14120;BME280;7138;49.246;9.100;2023-01-27T03:10:23;99022.50;;;2.53;86.95
14120;BME280;7138;49.246;9.100;2023-01-27T03:12:49;99014.75;;;2.50;86.88
14120;BME280;7138;49.246;9.100;2023-01-27T03:15:16;99023.25;;;2.51;87.71
14120;BME280;7138;49.246;9.100;2023-01-27T03:18:05;99023.25;;;2.51;87.69
14120;BME280;7138;49.246;9.100;2023-01-27T03:20:36;99018.19;;;2.52;87.86
14120;BME280;7138;49.246;9.100;2023-01-27T03:23:02;99027.59;;;2.53;86.75
14120;BME280;7138;49.246;9.100;2023-01-27T03:25:28;99027.69;;;2.55;87.25
14120;BME280;7138;49.246;9.100;2023-01-27T03:27:54;99028.53;;;2.55;87.02
14120;BME280;7138;49.246;9.100;2023-01-27T03:30:22;99036.19;;;2.55;87.52
14120;BME280;7138;49.246;9.100;2023-01-27T03:32:48;99026.84;;;2.56;87.94
14120;BME280;7138;49.246;9.100;2023-01-27T03:35:15;99033.59;;;2.54;87.36
14120;BME280;7138;49.246;9.100;2023-01-27T03:37:42;99023.25;;;2.51;87.46
14120;BME280;7138;49.246;9.100;2023-01-27T03:40:27;99042.88;;;2.52;87.97
14120;BME280;7138;49.246;9.100;2023-01-27T03:43:12;99041.94;;;2.50;87.72
14120;BME280;7138;49.246;9.100;2023-01-27T03:45:58;99048.22;;;2.36;87.79
14120;BME280;7138;49.246;9.100;2023-01-27T03:48:43;99053.25;;;2.34;87.87
14120;BME280;7138;49.246;9.100;2023-01-27T03:51:10;99052.34;;;2.32;87.82
14120;BME280;7138;49.246;9.100;2023-01-27T03:53:36;99053.78;;;2.26;88.23
14120;BME280;7138;49.246;9.100;2023-01-27T03:56:03;99056.41;;;2.27;88.60
14120;BME280;7138;49.246;9.100;2023-01-27T03:58:33;99052.22;;;2.29;88.59
14120;BME280;7138;49.246;9.100;2023-01-27T04:01:02;99053.09;;;2.30;88.43
14120;BME280;7138;49.246;9.100;2023-01-27T04:03:32;99052.88;;;2.24;88.35
14120;BME280;7138;49.246;9.100;2023-01-27T04:06:20;99057.84;;;2.20;88.19
14120;BME280;7138;49.246;9.100;2023-01-27T04:09:07;99061.28;;;2.21;89.66
14120;BME280;7138;49.246;9.100;2023-01-27T04:11:34;99066.44;;;2.22;88.80
14120;BME280;7138;49.246;9.100;2023-01-27T04:14:20;99066.44;;;2.22;89.57
14120;BME280;7138;49.246;9.100;2023-01-27T04:16:49;99074.56;;;2.12;88.49
14120;BME280;7138;49.246;9.100;2023-01-27T04:19:15;99065.97;;;2.10;89.54
14120;BME280;7138;49.246;9.100;2023-01-27T04:21:41;99066.06;;;2.13;88.86
14120;BME280;7138;49.246;9.100;2023-01-27T04:24:11;99074.59;;;2.14;88.83
14120;BME280;7138;49.246;9.100;2023-01-27T04:26:49;99053.09;;;2.07;89.35
14120;BME280;7138;49.246;9.100;2023-01-27T04:29:16;99066.19;;;2.16;88.69
14120;BME280;7138;49.246;9.100;2023-01-27T04:31:42;99067.19;;;2.20;88.98
14120;BME280;7138;49.246;9.100;2023-01-27T04:34:11;99063.88;;;2.22;88.05
14120;BME280;7138;49.246;9.100;2023-01-27T04:36:37;99075.53;;;2.16;88.79
14120;BME280;7138;49.246;9.100;2023-01-27T04:39:03;99054.66;;;2.04;88.05
14120;BME280;7138;49.246;9.100;2023-01-27T04:41:29;99079.78;;;2.15;87.76
14120;BME280;7138;49.246;9.100;2023-01-27T04:43:55;99073.59;;;2.10;87.32
14120;BME280;7138;49.246;9.100;2023-01-27T04:46:21;99077.91;;;2.11;88.01
14120;BME280;7138;49.246;9.100;2023-01-27T04:48:47;99067.59;;;2.08;88.08
14120;BME280;7138;49.246;9.100;2023-01-27T04:51:14;99072.94;;;2.14;87.18
14120;BME280;7138;49.246;9.100;2023-01-27T04:53:40;99068.63;;;2.13;87.64
14120;BME280;7138;49.246;9.100;2023-01-27T04:56:20;99078.03;;;2.14;86.82
14120;BME280;7138;49.246;9.100;2023-01-27T04:58:47;99070.03;;;2.05;87.91
14120;BME280;7138;49.246;9.100;2023-01-27T05:01:12;99076.03;;;2.07;88.45
14120;BME280;7138;49.246;9.100;2023-01-27T05:03:38;99068.16;;;2.01;87.83
14120;BME280;7138;49.246;9.100;2023-01-27T05:06:05;99073.44;;;2.06;88.32
14120;BME280;7138;49.246;9.100;2023-01-27T05:08:32;99066.06;;;2.13;88.54
14120;BME280;7138;49.246;9.100;2023-01-27T05:10:58;99071.06;;;2.10;88.18
14120;BME280;7138;49.246;9.100;2023-01-27T05:13:23;99073.56;;;2.09;87.61
14120;BME280;7138;49.246;9.100;2023-01-27T05:15:49;99071.19;;;2.13;88.34
14120;BME280;7138;49.246;9.100;2023-01-27T05:18:15;99070.31;;;2.13;87.09
14120;BME280;7138;49.246;9.100;2023-01-27T05:20:41;99072.72;;;2.10;87.70
14120;BME280;7138;49.246;9.100;2023-01-27T05:23:07;99078.31;;;2.00;87.10
14120;BME280;7138;49.246;9.100;2023-01-27T05:25:53;99080.03;;;2.01;87.55
14120;BME280;7138;49.246;9.100;2023-01-27T05:28:18;99083.44;;;2.01;87.26
14120;BME280;7138;49.246;9.100;2023-01-27T05:30:44;99089.38;;;2.00;87.03
14120;BME280;7138;49.246;9.100;2023-01-27T05:33:10;99105.25;;;1.93;86.93
14120;BME280;7138;49.246;9.100;2023-01-27T05:35:36;99101.19;;;1.98;87.80
14120;BME280;7138;49.246;9.100;2023-01-27T05:38:02;99102.84;;;1.98;87.63
14120;BME280;7138;49.246;9.100;2023-01-27T05:40:28;99096.91;;;1.97;86.83
14120;BME280;7138;49.246;9.100;2023-01-27T05:42:55;99096.84;;;1.96;86.67
14120;BME280;7138;49.246;9.100;2023-01-27T05:45:21;99096.34;;;1.84;86.99
14120;BME280;7138;49.246;9.100;2023-01-27T05:47:48;99094.59;;;1.83;86.53
14120;BME280;7138;49.246;9.100;2023-01-27T05:50:15;99100.47;;;1.80;87.80
14120;BME280;7138;49.246;9.100;2023-01-27T05:52:42;99096.13;;;1.78;87.91
14120;BME280;7138;49.246;9.100;2023-01-27T05:55:08;99090.09;;;1.76;87.65
14120;BME280;7138;49.246;9.100;2023-01-27T05:57:34;99104.81;;;1.83;86.82
14120;BME280;7138;49.246;9.100;2023-01-27T06:00:02;99106.44;;;1.81;87.67
14120;BME280;7138;49.246;9.100;2023-01-27T06:02:28;99100.56;;;1.83;87.51
14120;BME280;7138;49.246;9.100;2023-01-27T06:04:54;99095.69;;;1.88;87.36
14120;BME280;7138;49.246;9.100;2023-01-27T06:07:20;99105.13;;;1.90;86.85
14120;BME280;7138;49.246;9.100;2023-01-27T06:09:45;99101.06;;;1.95;87.89
14120;BME280;7138;49.246;9.100;2023-01-27T06:12:11;99104.72;;;2.02;86.79
14120;BME280;7138;49.246;9.100;2023-01-27T06:14:37;99106.41;;;2.01;87.24
14120;BME280;7138;49.246;9.100;2023-01-27T06:17:04;99104.69;;;2.00;86.33
14120;BME280;7138;49.246;9.100;2023-01-27T06:19:31;99107.00;;;1.94;86.73
14120;BME280;7138;49.246;9.100;2023-01-27T06:21:57;99109.34;;;1.90;86.96
14120;BME280;7138;49.246;9.100;2023-01-27T06:24:22;99114.53;;;1.91;86.75
14120;BME280;7138;49.246;9.100;2023-01-27T06:26:48;99106.56;;;1.84;87.08
14120;BME280;7138;49.246;9.100;2023-01-27T06:29:14;99108.19;;;1.82;88.27
14120;BME280;7138;49.246;9.100;2023-01-27T06:31:40;99094.81;;;1.87;87.81
14120;BME280;7138;49.246;9.100;2023-01-27T06:34:07;99102.69;;;1.93;88.28
14120;BME280;7138;49.246;9.100;2023-01-27T06:36:33;99107.72;;;1.92;87.17
14120;BME280;7138;49.246;9.100;2023-01-27T06:38:59;99111.13;;;1.92;87.57
14120;BME280;7138;49.246;9.100;2023-01-27T06:41:25;99111.38;;;1.98;87.57
14120;BME280;7138;49.246;9.100;2023-01-27T06:43:50;99114.88;;;2.00;86.92
14120;BME280;7138;49.246;9.100;2023-01-27T06:46:16;99117.47;;;2.02;87.45
14120;BME280;7138;49.246;9.100;2023-01-27T06:48:42;99112.63;;;2.08;87.72
14120;BME280;7138;49.246;9.100;2023-01-27T06:51:09;99121.13;;;2.08;86.87
14120;BME280;7138;49.246;9.100;2023-01-27T06:53:35;99130.66;;;2.12;86.75
14120;BME280;7138;49.246;9.100;2023-01-27T06:56:02;99140.88;;;2.12;86.35
14120;BME280;7138;49.246;9.100;2023-01-27T06:58:29;99133.78;;;2.05;87.19
14120;BME280;7138;49.246;9.100;2023-01-27T07:00:55;99147.44;;;2.07;87.17
14120;BME280;7138;49.246;9.100;2023-01-27T07:03:21;99150.06;;;2.09;86.64
14120;BME280;7138;49.246;9.100;2023-01-27T07:05:47;99157.63;;;2.07;86.44
14120;BME280;7138;49.246;9.100;2023-01-27T07:08:14;99155.84;;;2.05;85.91
14120;BME280;7138;49.246;9.100;2023-01-27T07:10:40;99157.53;;;2.04;86.42
14120;BME280;7138;49.246;9.100;2023-01-27T07:13:08;99158.22;;;2.00;86.66
14120;BME280;7138;49.246;9.100;2023-01-27T07:15:34;99164.13;;;1.99;86.29
14120;BME280;7138;49.246;9.100;2023-01-27T07:18:00;99160.81;;;2.02;87.10
14120;BME280;7138;49.246;9.100;2023-01-27T07:20:28;99171.94;;;2.04;86.89
14120;BME280;7138;49.246;9.100;2023-01-27T07:22:56;99173.31;;;1.96;86.65
14120;BME280;7138;49.246;9.100;2023-01-27T07:25:24;99173.94;;;1.90;86.22
14120;BME280;7138;49.246;9.100;2023-01-27T07:27:50;99177.75;;;1.79;86.12
14120;BME280;7138;49.246;9.100;2023-01-27T07:30:16;99177.78;;;1.81;86.07
14120;BME280;7138;49.246;9.100;2023-01-27T07:32:42;99180.59;;;1.87;85.74
14120;BME280;7138;49.246;9.100;2023-01-27T07:35:08;99168.03;;;1.71;85.36
14120;BME280;7138;49.246;9.100;2023-01-27T07:37:34;99186.44;;;1.84;85.84
14120;BME280;7138;49.246;9.100;2023-01-27T07:40:00;99192.22;;;1.80;85.59
14120;BME280;7138;49.246;9.100;2023-01-27T07:42:27;99187.13;;;1.80;86.32
14120;BME280;7138;49.246;9.100;2023-01-27T07:44:53;99186.56;;;1.87;85.85
14120;BME280;7138;49.246;9.100;2023-01-27T07:47:19;99193.47;;;1.90;85.04
14120;BME280;7138;49.246;9.100;2023-01-27T07:49:44;99191.03;;;1.93;85.97
14120;BME280;7138;49.246;9.100;2023-01-27T07:52:10;99198.81;;;1.96;85.87
14120;BME280;7138;49.246;9.100;2023-01-27T07:54:36;99194.72;;;1.99;85.51
14120;BME280;7138;49.246;9.100;2023-01-27T07:57:02;99204.91;;;1.99;85.57
14120;BME280;7138;49.246;9.100;2023-01-27T07:59:29;99202.88;;;1.91;84.87
14120;BME280;7138;49.246;9.100;2023-01-27T08:01:55;99207.13;;;1.92;85.14
14120;BME280;7138;49.246;9.100;2023-01-27T08:04:21;99207.34;;;1.96;86.09
14120;BME280;7138;49.246;9.100;2023-01-27T08:06:47;99210.06;;;2.01;85.50
14120;BME280;7138;49.246;9.100;2023-01-27T08:09:13;99213.69;;;2.06;85.92
14120;BME280;7138;49.246;9.100;2023-01-27T08:11:38;99208.50;;;2.04;84.62
14120;BME280;7138;49.246;9.100;2023-01-27T08:14:04;99213.81;;;2.09;84.96
14120;BME280;7138;49.246;9.100;2023-01-27T08:16:31;99210.31;;;2.07;84.69
14120;BME280;7138;49.246;9.100;2023-01-27T08:18:57;99217.03;;;2.05;84.67
14120;BME280;7138;49.246;9.100;2023-01-27T08:21:23;99209.50;;;2.08;85.25
14120;BME280;7138;49.246;9.100;2023-01-27T08:23:50;99203.66;;;2.10;85.03
14120;BME280;7138;49.246;9.100;2023-01-27T08:26:17;99211.00;;;2.24;84.59
14120;BME280;7138;49.246;9.100;2023-01-27T08:28:43;99211.81;;;2.22;85.36
14120;BME280;7138;49.246;9.100;2023-01-27T08:31:12;99208.63;;;2.28;85.23
14120;BME280;7138;49.246;9.100;2023-01-27T08:33:41;99208.56;;;2.27;85.18
14120;BME280;7138;49.246;9.100;2023-01-27T08:36:11;99222.72;;;2.18;84.96
14120;BME280;7138;49.246;9.100;2023-01-27T08:38:37;99220.09;;;2.17;84.75
14120;BME280;7138;49.246;9.100;2023-01-27T08:41:05;99210.88;;;2.20;85.11
14120;BME280;7138;49.246;9.100;2023-01-27T08:43:33;99211.88;;;2.24;84.44
14120;BME280;7138;49.246;9.100;2023-01-27T08:45:59;99212.25;;;2.33;85.31
14120;BME280;7138;49.246;9.100;2023-01-27T08:48:26;99211.75;;;2.21;84.52
14120;BME280;7138;49.246;9.100;2023-01-27T08:50:54;99219.69;;;2.29;84.95
14120;BME280;7138;49.246;9.100;2023-01-27T08:53:20;99228.91;;;2.25;83.98
14120;BME280;7138;49.246;9.100;2023-01-27T08:55:46;99227.94;;;2.22;84.88
14120;BME280;7138;49.246;9.100;2023-01-27T08:58:12;99221.13;;;2.22;84.35
14120;BME280;7138;49.246;9.100;2023-01-27T09:00:38;99224.06;;;2.31;84.35
14120;BME280;7138;49.246;9.100;2023-01-27T09:03:04;99221.03;;;2.40;84.83
14120;BME280;7138;49.246;9.100;2023-01-27T09:05:30;99231.91;;;2.36;85.13
14120;BME280;7138;49.246;9.100;2023-01-27T09:07:57;99229.63;;;2.43;84.68
14120;BME280;7138;49.246;9.100;2023-01-27T09:10:23;99228.69;;;2.40;84.64
14120;BME280;7138;49.246;9.100;2023-01-27T09:12:49;99235.50;;;2.41;84.92
14120;BME280;7138;49.246;9.100;2023-01-27T09:15:16;99239.56;;;2.36;84.79
14120;BME280;7138;49.246;9.100;2023-01-27T09:17:42;99238.25;;;2.25;85.31
14120;BME280;7138;49.246;9.100;2023-01-27T09:20:09;99237.50;;;2.27;85.09
14120;BME280;7138;49.246;9.100;2023-01-27T09:22:38;99229.09;;;2.30;85.05
14120;BME280;7138;49.246;9.100;2023-01-27T09:25:07;99229.34;;;2.36;85.21
14120;BME280;7138;49.246;9.100;2023-01-27T09:27:36;99238.16;;;2.44;85.34
14120;BME280;7138;49.246;9.100;2023-01-27T09:30:02;99235.69;;;2.45;84.45
14120;BME280;7138;49.246;9.100;2023-01-27T09:32:28;99232.38;;;2.48;85.35
14120;BME280;7138;49.246;9.100;2023-01-27T09:34:54;99229.09;;;2.50;84.55
14120;BME280;7138;49.246;9.100;2023-01-27T09:37:20;99235.19;;;2.54;84.52
14120;BME280;7138;49.246;9.100;2023-01-27T09:39:50;99237.72;;;2.54;84.47
14120;BME280;7138;49.246;9.100;2023-01-27T09:45:51;99231.88;;;2.56;84.91
14120;BME280;7138;49.246;9.100;2023-01-27T09:48:59;99241.44;;;2.62;84.84
14120;BME280;7138;49.246;9.100;2023-01-27T09:51:43;99234.75;;;2.64;84.12
14120;BME280;7138;49.246;9.100;2023-01-27T09:54:28;99234.75;;;2.64;83.31
14120;BME280;7138;49.246;9.100;2023-01-27T09:57:07;99243.41;;;2.67;84.00
14120;BME280;7138;49.246;9.100;2023-01-27T10:00:05;99250.19;;;2.67;84.38
14120;BME280;7138;49.246;9.100;2023-01-27T10:02:57;99246.78;;;2.68;83.55
14120;BME280;7138;49.246;9.100;2023-01-27T10:05:54;99246.41;;;2.80;84.16
14120;BME280;7138;49.246;9.100;2023-01-27T10:08:53;99247.69;;;2.91;83.72
14120;BME280;7138;49.246;9.100;2023-01-27T10:11:30;99236.44;;;2.86;83.75
14120;BME280;7138;49.246;9.100;2023-01-27T10:14:15;99249.00;;;2.81;82.42
14120;BME280;7138;49.246;9.100;2023-01-27T10:17:23;99230.69;;;2.91;83.20
14120;BME280;7138;49.246;9.100;2023-01-27T10:20:07;99253.47;;;2.87;83.31
14120;BME280;7138;49.246;9.100;2023-01-27T10:22:48;99248.25;;;2.84;82.26
14120;BME280;7138;49.246;9.100;2023-01-27T10:25:30;99247.22;;;2.79;82.45
14120;BME280;7138;49.246;9.100;2023-01-27T10:28:11;99241.56;;;2.86;83.38
14120;BME280;7138;49.246;9.100;2023-01-27T10:30:43;99233.94;;;2.87;82.21
14120;BME280;7138;49.246;9.100;2023-01-27T10:33:17;99239.22;;;2.92;82.78
14120;BME280;7138;49.246;9.100;2023-01-27T10:35:51;99236.56;;;2.89;82.31
14120;BME280;7138;49.246;9.100;2023-01-27T10:38:32;99229.84;;;2.92;82.41
14120;BME280;7138;49.246;9.100;2023-01-27T10:41:14;99229.06;;;2.93;83.16
14120;BME280;7138;49.246;9.100;2023-01-27T10:43:58;99229.16;;;2.96;83.13
14120;BME280;7138;49.246;9.100;2023-01-27T10:46:36;99226.56;;;2.95;83.28
14120;BME280;7138;49.246;9.100;2023-01-27T10:49:13;99213.19;;;3.02;82.08
14120;BME280;7138;49.246;9.100;2023-01-27T10:51:54;99218.53;;;3.08;83.04
14120;BME280;7138;49.246;9.100;2023-01-27T10:54:29;99218.72;;;3.12;83.62
14120;BME280;7138;49.246;9.100;2023-01-27T10:57:03;99212.78;;;3.13;82.88
14120;BME280;7138;49.246;9.100;2023-01-27T10:59:37;99219.97;;;3.23;83.10
14120;BME280;7138;49.246;9.100;2023-01-27T11:02:19;99199.75;;;3.29;82.21
14120;BME280;7138;49.246;9.100;2023-01-27T11:04:55;99204.28;;;3.37;82.35
14120;BME280;7138;49.246;9.100;2023-01-27T11:07:24;99210.19;;;3.36;81.58
14120;BME280;7138;49.246;9.100;2023-01-27T11:09:55;99203.66;;;3.44;82.28
14120;BME280;7138;49.246;9.100;2023-01-27T11:12:28;99205.47;;;3.46;81.98
14120;BME280;7138;49.246;9.100;2023-01-27T11:14:56;99205.72;;;3.54;81.60
14120;BME280;7138;49.246;9.100;2023-01-27T11:17:30;99198.97;;;3.56;81.25
14120;BME280;7138;49.246;9.100;2023-01-27T11:20:07;99183.31;;;3.47;80.13
14120;BME280;7138;49.246;9.100;2023-01-27T11:22:54;99202.38;;;3.55;80.58
14120;BME280;7138;49.246;9.100;2023-01-27T11:25:26;99196.16;;;3.48;80.31
14120;BME280;7138;49.246;9.100;2023-01-27T11:28:13;99210.19;;;3.36;80.34
14120;BME280;7138;49.246;9.100;2023-01-27T11:30:48;99213.09;;;3.22;80.37
14120;BME280;7138;49.246;9.100;2023-01-27T11:33:23;99225.06;;;3.23;80.70
14120;BME280;7138;49.246;9.100;2023-01-27T11:35:54;99214.16;;;3.27;81.56
14120;BME280;7138;49.246;9.100;2023-01-27T11:38:22;99213.97;;;3.23;80.68
14120;BME280;7138;49.246;9.100;2023-01-27T11:40:50;99208.19;;;3.27;81.53
14120;BME280;7138;49.246;9.100;2023-01-27T11:43:23;99208.22;;;3.28;81.59
14120;BME280;7138;49.246;9.100;2023-01-27T11:45:55;99210.06;;;3.33;81.34
14120;BME280;7138;49.246;9.100;2023-01-27T11:48:37;99202.63;;;3.39;80.67
14120;BME280;7138;49.246;9.100;2023-01-27T11:51:16;99204.84;;;3.29;80.31
14120;BME280;7138;49.246;9.100;2023-01-27T11:53:49;99192.38;;;3.37;81.10
14120;BME280;7138;49.246;9.100;2023-01-27T11:56:18;99195.28;;;3.24;79.96
14120;BME280;7138;49.246;9.100;2023-01-27T11:58:52;99195.41;;;3.27;80.96
14120;BME280;7138;49.246;9.100;2023-01-27T12:01:32;99196.66;;;3.38;81.38
14120;BME280;7138;49.246;9.100;2023-01-27T12:04:08;99201.00;;;3.41;81.54
14120;BME280;7138;49.246;9.100;2023-01-27T12:06:43;99189.81;;;3.37;80.58
14120;BME280;7138;49.246;9.100;2023-01-27T12:09:30;99195.66;;;3.35;80.92
14120;BME280;7138;49.246;9.100;2023-01-27T12:12:12;99194.84;;;3.36;81.15
14120;BME280;7138;49.246;9.100;2023-01-27T12:14:48;99187.03;;;3.31;81.37
14120;BME280;7138;49.246;9.100;2023-01-27T12:17:26;99171.09;;;3.38;81.62
14120;BME280;7138;49.246;9.100;2023-01-27T12:19:56;99173.09;;;3.47;81.34
14120;BME280;7138;49.246;9.100;2023-01-27T12:22:29;99175.84;;;3.53;81.50
14120;BME280;7138;49.246;9.100;2023-01-27T12:25:01;99173.50;;;3.59;80.82
14120;BME280;7138;49.246;9.100;2023-01-27T12:27:33;99173.69;;;3.63;80.83
14120;BME280;7138;49.246;9.100;2023-01-27T12:30:05;99173.94;;;3.71;81.42
14120;BME280;7138;49.246;9.100;2023-01-27T12:32:39;99165.31;;;3.67;79.89
14120;BME280;7138;49.246;9.100;2023-01-27T12:35:17;99181.09;;;3.81;79.94
14120;BME280;7138;49.246;9.100;2023-01-27T12:37:47;99176.06;;;3.82;80.25
14120;BME280;7138;49.246;9.100;2023-01-27T12:40:19;99183.72;;;3.82;80.10
14120;BME280;7138;49.246;9.100;2023-01-27T12:42:48;99183.75;;;3.84;80.36
14120;BME280;7138;49.246;9.100;2023-01-27T12:45:28;99186.97;;;3.78;79.56
14120;BME280;7138;49.246;9.100;2023-01-27T12:48:01;99181.66;;;3.72;80.27
14120;BME280;7138;49.246;9.100;2023-01-27T12:50:41;99184.47;;;3.80;80.73
14120;BME280;7138;49.246;9.100;2023-01-27T12:53:12;99174.13;;;3.77;79.98
14120;BME280;7138;49.246;9.100;2023-01-27T12:55:46;99176.56;;;3.72;80.90
14120;BME280;7138;49.246;9.100;2023-01-27T12:58:31;99186.78;;;3.72;80.40
14120;BME280;7138;49.246;9.100;2023-01-27T13:01:01;99184.16;;;3.71;80.31
14120;BME280;7138;49.246;9.100;2023-01-27T13:03:29;99195.25;;;3.71;80.28
14120;BME280;7138;49.246;9.100;2023-01-27T13:05:58;99193.66;;;3.73;80.77
14120;BME280;7138;49.246;9.100;2023-01-27T13:08:27;99183.53;;;3.76;80.68
14120;BME280;7138;49.246;9.100;2023-01-27T13:10:58;99198.69;;;3.72;80.07
14120;BME280;7138;49.246;9.100;2023-01-27T13:13:27;99200.25;;;3.68;80.69
14120;BME280;7138;49.246;9.100;2023-01-27T13:16:03;99193.44;;;3.67;80.86
14120;BME280;7138;49.246;9.100;2023-01-27T13:18:33;99198.38;;;3.63;81.03
14120;BME280;7138;49.246;9.100;2023-01-27T13:21:08;99193.44;;;3.67;81.78
14120;BME280;7138;49.246;9.100;2023-01-27T13:23:39;99191.69;;;3.66;81.32
14120;BME280;7138;49.246;9.100;2023-01-27T13:26:14;99200.53;;;3.76;81.28
14120;BME280;7138;49.246;9.100;2023-01-27T13:28:46;99200.25;;;3.68;81.21
14120;BME280;7138;49.246;9.100;2023-01-27T13:31:23;99207.28;;;3.74;80.93
14120;BME280;7138;49.246;9.100;2023-01-27T13:33:59;99204.91;;;3.80;81.44
14120;BME280;7138;49.246;9.100;2023-01-27T13:36:35;99194.88;;;3.84;81.18
14120;BME280;7138;49.246;9.100;2023-01-27T13:39:16;99200.88;;;3.86;80.68
14120;BME280;7138;49.246;9.100;2023-01-27T13:41:51;99179.16;;;3.74;81.36
14120;BME280;7138;49.246;9.100;2023-01-27T13:44:29;99187.34;;;3.89;81.67
14120;BME280;7138;49.246;9.100;2023-01-27T13:47:03;99188.38;;;3.94;81.37